PWSweather.com
Personal Weather Stations
Station Observations
948974
Valtournenche, AostaIT 11028

ValtournencheAostaIT 11028

Lat: 45.877222, Lon: 7.625556

Elevation: 5085.3018

Station Type: PCE-FWS 20

http://www.cdso.it

High Low Average
Temperature 60.5°F15.8°C 33.3°F0.7°C 42.6°F5.9°C
Dew Point 21.1°F-6.1°C 5.3°F-14.8°C 13.0°F-10.6°C
Winds 4.0 mph 6.4 kmh Calm Calm 2.0 mph S3.2 kmh S
Wind Gusts 8.0 mph12.9 kmh 2.0 mph3.2 kmh 4.0 mph6.4 kmh
Humidity 44% 19% 31%
Pressure 30.57 in1035.2 mb 30.23 in1023.7 mb -
Precipitation 0.00 in0.0 mm - -
Hour Temp Dew Point Humidity Winds Wind Gusts Pressure Precip Precip Rate Daily Precip Total
12:15 AM 39.0°F3.9°C 13.1°F-10.5°C 34% 3.0 mph NW4.8 kmh NW 4.0 mph6.4 kmh 30.51 in1033.2 mb 0.00 in0.0 mm 0.00 in0.0 mm 0.00 in0.0 mm
12:36 AM 37.0°F2.8°C 11.3°F-11.5°C 34% 2.0 mph NW3.2 kmh NW 3.0 mph4.8 kmh 30.54 in1034.2 mb 0.00 in0.0 mm 0.00 in0.0 mm 0.00 in0.0 mm
12:57 AM 36.0°F2.2°C 12.2°F-11.0°C 37% 1.0 mph NW1.6 kmh NW 2.0 mph3.2 kmh 30.56 in1034.9 mb 0.00 in0.0 mm 0.00 in0.0 mm 0.00 in0.0 mm
01:18 AM 35.1°F1.7°C 13.2°F-10.4°C 40% 2.0 mph NW3.2 kmh NW 3.0 mph4.8 kmh 30.57 in1035.2 mb 0.00 in0.0 mm 0.00 in0.0 mm 0.00 in0.0 mm
01:39 AM 34.9°F1.6°C 13.0°F-10.6°C 40% 3.0 mph NW4.8 kmh NW 4.0 mph6.4 kmh 30.56 in1034.9 mb 0.00 in0.0 mm 0.00 in0.0 mm 0.00 in0.0 mm
02:00 AM 34.9°F1.6°C 12.5°F-10.8°C 39% 2.0 mph WNW3.2 kmh WNW 3.0 mph4.8 kmh 30.57 in1035.2 mb 0.00 in0.0 mm 0.00 in0.0 mm 0.00 in0.0 mm
02:21 AM 36.9°F2.7°C 9.1°F-12.7°C 31% 2.0 mph 3.2 kmh 3.0 mph4.8 kmh 30.54 in1034.2 mb 0.00 in0.0 mm 0.00 in0.0 mm 0.00 in0.0 mm
02:42 AM 34.7°F1.5°C 11.1°F-11.6°C 37% 4.0 mph 6.4 kmh 6.0 mph9.7 kmh 30.56 in1034.9 mb 0.00 in0.0 mm 0.00 in0.0 mm 0.00 in0.0 mm
03:03 AM 34.0°F1.1°C 11.7°F-11.3°C 39% 2.0 mph 3.2 kmh 3.0 mph4.8 kmh 30.57 in1035.2 mb 0.00 in0.0 mm 0.00 in0.0 mm 0.00 in0.0 mm
03:24 AM 34.0°F1.1°C 11.1°F-11.6°C 38% 1.0 mph 1.6 kmh 2.0 mph3.2 kmh 30.56 in1034.9 mb 0.00 in0.0 mm 0.00 in0.0 mm 0.00 in0.0 mm
03:45 AM 34.0°F1.1°C 11.1°F-11.6°C 38% 1.0 mph NW1.6 kmh NW 2.0 mph3.2 kmh 30.56 in1034.9 mb 0.00 in0.0 mm 0.00 in0.0 mm 0.00 in0.0 mm
04:06 AM 34.0°F1.1°C 10.5°F-11.9°C 37% 2.0 mph 3.2 kmh 3.0 mph4.8 kmh 30.56 in1034.9 mb 0.00 in0.0 mm 0.00 in0.0 mm 0.00 in0.0 mm
04:27 AM 33.6°F0.9°C 10.2°F-12.1°C 37% 2.0 mph NW3.2 kmh NW 3.0 mph4.8 kmh 30.56 in1034.9 mb 0.00 in0.0 mm 0.00 in0.0 mm 0.00 in0.0 mm
04:48 AM 34.9°F1.6°C 8.1°F-13.3°C 32% 4.0 mph NW6.4 kmh NW 6.0 mph9.7 kmh 30.54 in1034.2 mb 0.00 in0.0 mm 0.00 in0.0 mm 0.00 in0.0 mm
05:09 AM 35.1°F1.7°C 6.8°F-14.0°C 30% 4.0 mph NW6.4 kmh NW 6.0 mph9.7 kmh 30.53 in1033.9 mb 0.00 in0.0 mm 0.00 in0.0 mm 0.00 in0.0 mm
05:30 AM 33.8°F1.0°C 7.8°F-13.4°C 33% 3.0 mph NW4.8 kmh NW 4.0 mph6.4 kmh 30.54 in1034.2 mb 0.00 in0.0 mm 0.00 in0.0 mm 0.00 in0.0 mm
05:51 AM 33.3°F0.7°C 9.2°F-12.7°C 36% 2.0 mph NW3.2 kmh NW 4.0 mph6.4 kmh 30.55 in1034.5 mb 0.00 in0.0 mm 0.00 in0.0 mm 0.00 in0.0 mm
06:12 AM 34.5°F1.4°C 7.7°F-13.5°C 32% 2.0 mph NW3.2 kmh NW 3.0 mph4.8 kmh 30.54 in1034.2 mb 0.00 in0.0 mm 0.00 in0.0 mm 0.00 in0.0 mm
06:33 AM 35.2°F1.8°C 5.4°F-14.8°C 28% 4.0 mph NW6.4 kmh NW 5.0 mph8.0 kmh 30.52 in1033.5 mb 0.00 in0.0 mm 0.00 in0.0 mm 0.00 in0.0 mm
06:54 AM 34.2°F1.2°C 6.0°F-14.4°C 30% 4.0 mph WNW6.4 kmh WNW 5.0 mph8.0 kmh 30.52 in1033.5 mb 0.00 in0.0 mm 0.00 in0.0 mm 0.00 in0.0 mm
07:15 AM 33.8°F1.0°C 7.1°F-13.8°C 32% 3.0 mph NW4.8 kmh NW 4.0 mph6.4 kmh 30.54 in1034.2 mb 0.00 in0.0 mm 0.00 in0.0 mm 0.00 in0.0 mm
07:36 AM 33.4°F0.8°C 8.1°F-13.3°C 34% 3.0 mph NW4.8 kmh NW 4.0 mph6.4 kmh 30.55 in1034.5 mb 0.00 in0.0 mm 0.00 in0.0 mm 0.00 in0.0 mm
07:57 AM 34.2°F1.2°C 6.7°F-14.1°C 31% 3.0 mph NW4.8 kmh NW 4.0 mph6.4 kmh 30.54 in1034.2 mb 0.00 in0.0 mm 0.00 in0.0 mm 0.00 in0.0 mm
08:18 AM 34.2°F1.2°C 7.4°F-13.7°C 32% 4.0 mph NW6.4 kmh NW 5.0 mph8.0 kmh 30.55 in1034.5 mb 0.00 in0.0 mm 0.00 in0.0 mm 0.00 in0.0 mm
08:42 AM 34.3°F1.3°C 6.7°F-14.1°C 31% 3.0 mph NW4.8 kmh NW 8.0 mph12.9 kmh 30.55 in1034.5 mb 0.00 in0.0 mm 0.00 in0.0 mm 0.00 in0.0 mm
09:21 AM 36.0°F2.2°C 5.3°F-14.8°C 27% 2.0 mph NW3.2 kmh NW 4.0 mph6.4 kmh 30.53 in1033.9 mb 0.00 in0.0 mm 0.00 in0.0 mm 0.00 in0.0 mm
09:42 AM 37.1°F2.8°C 7.0°F-13.9°C 28% 2.0 mph NW3.2 kmh NW 4.0 mph6.4 kmh 30.52 in1033.5 mb 0.00 in0.0 mm 0.00 in0.0 mm 0.00 in0.0 mm
10:03 AM 42.3°F5.7°C 9.7°F-12.4°C 26% 1.0 mph NW1.6 kmh NW 3.0 mph4.8 kmh 30.46 in1031.5 mb 0.00 in0.0 mm 0.00 in0.0 mm 0.00 in0.0 mm
10:21 AM 46.2°F7.9°C 11.8°F-11.2°C 24% 1.0 mph NW1.6 kmh NW 4.0 mph6.4 kmh 30.41 in1029.8 mb 0.00 in0.0 mm 0.00 in0.0 mm 0.00 in0.0 mm
10:42 AM 49.0°F9.4°C 14.4°F-9.8°C 25% Calm Calm 2.0 mph3.2 kmh 30.38 in1028.8 mb 0.00 in0.0 mm 0.00 in0.0 mm 0.00 in0.0 mm
11:03 AM 50.6°F10.3°C 14.0°F-10.0°C 23% 1.0 mph NW1.6 kmh NW 3.0 mph4.8 kmh 30.36 in1028.1 mb 0.00 in0.0 mm 0.00 in0.0 mm 0.00 in0.0 mm
11:21 AM 51.1°F10.6°C 13.6°F-10.2°C 22% 2.0 mph W3.2 kmh W 4.0 mph6.4 kmh 30.36 in1028.1 mb 0.00 in0.0 mm 0.00 in0.0 mm 0.00 in0.0 mm
11:42 AM 51.1°F10.6°C 13.1°F-10.5°C 22% 1.0 mph SE1.6 kmh SE 4.0 mph6.4 kmh 30.37 in1028.4 mb 0.00 in0.0 mm 0.00 in0.0 mm 0.00 in0.0 mm
12:03 PM 54.4°F12.4°C 16.1°F-8.8°C 22% Calm Calm 3.0 mph4.8 kmh 30.33 in1027.1 mb 0.00 in0.0 mm 0.00 in0.0 mm 0.00 in0.0 mm
12:21 PM 53.5°F11.9°C 15.2°F-9.3°C 22% 3.0 mph SW4.8 kmh SW 4.0 mph6.4 kmh 30.34 in1027.4 mb 0.00 in0.0 mm 0.00 in0.0 mm 0.00 in0.0 mm
12:42 PM 54.8°F12.7°C 14.9°F-9.5°C 20% 2.0 mph SW3.2 kmh SW 4.0 mph6.4 kmh 30.32 in1026.8 mb 0.00 in0.0 mm 0.00 in0.0 mm 0.00 in0.0 mm
01:03 PM 55.1°F12.8°C 15.2°F-9.3°C 20% 1.0 mph SW1.6 kmh SW 4.0 mph6.4 kmh 30.31 in1026.4 mb 0.00 in0.0 mm 0.00 in0.0 mm 0.00 in0.0 mm
01:21 PM 57.3°F14.1°C 17.7°F-7.9°C 21% 2.0 mph WSW3.2 kmh WSW 4.0 mph6.4 kmh 30.28 in1025.4 mb 0.00 in0.0 mm 0.00 in0.0 mm 0.00 in0.0 mm
01:42 PM 56.7°F13.7°C 17.7°F-7.9°C 21% 2.0 mph S3.2 kmh S 5.0 mph8.0 kmh 30.29 in1025.7 mb 0.00 in0.0 mm 0.00 in0.0 mm 0.00 in0.0 mm
02:03 PM 56.6°F13.7°C 18.2°F-7.7°C 22% 3.0 mph SW4.8 kmh SW 5.0 mph8.0 kmh 30.29 in1025.7 mb 0.00 in0.0 mm 0.00 in0.0 mm 0.00 in0.0 mm
02:21 PM 59.1°F15.1°C 18.8°F-7.3°C 21% 2.0 mph SSW3.2 kmh SSW 4.0 mph6.4 kmh 30.25 in1024.4 mb 0.00 in0.0 mm 0.00 in0.0 mm 0.00 in0.0 mm
02:42 PM 59.8°F15.4°C 18.7°F-7.4°C 20% 3.0 mph S4.8 kmh S 6.0 mph9.7 kmh 30.24 in1024.0 mb 0.00 in0.0 mm 0.00 in0.0 mm 0.00 in0.0 mm
03:03 PM 60.5°F15.8°C 18.6°F-7.4°C 19% 2.0 mph S3.2 kmh S 4.0 mph6.4 kmh 30.23 in1023.7 mb 0.00 in0.0 mm 0.00 in0.0 mm 0.00 in0.0 mm
03:21 PM 60.4°F15.8°C 19.2°F-7.1°C 20% 3.0 mph S4.8 kmh S 5.0 mph8.0 kmh 30.23 in1023.7 mb 0.00 in0.0 mm 0.00 in0.0 mm 0.00 in0.0 mm
03:42 PM 59.9°F15.5°C 19.2°F-7.1°C 20% 2.0 mph SW3.2 kmh SW 4.0 mph6.4 kmh 30.24 in1024.0 mb 0.00 in0.0 mm 0.00 in0.0 mm 0.00 in0.0 mm
04:21 PM 58.2°F14.6°C 21.1°F-6.1°C 24% 2.0 mph WSW3.2 kmh WSW 4.0 mph6.4 kmh 30.25 in1024.4 mb 0.00 in0.0 mm 0.00 in0.0 mm 0.00 in0.0 mm
04:42 PM 56.9°F13.8°C 20.1°F-6.6°C 24% 1.0 mph SW1.6 kmh SW 4.0 mph6.4 kmh 30.26 in1024.7 mb 0.00 in0.0 mm 0.00 in0.0 mm 0.00 in0.0 mm
05:03 PM 50.9°F10.5°C 17.4°F-8.1°C 26% 1.0 mph SSW1.6 kmh SSW 3.0 mph4.8 kmh 30.33 in1027.1 mb 0.00 in0.0 mm 0.00 in0.0 mm 0.00 in0.0 mm
05:21 PM 47.6°F8.7°C 17.5°F-8.1°C 30% Calm Calm 2.0 mph3.2 kmh 30.37 in1028.4 mb 0.00 in0.0 mm 0.00 in0.0 mm 0.00 in0.0 mm
05:42 PM 46.1°F7.8°C 14.3°F-9.8°C 27% 1.0 mph 1.6 kmh 4.0 mph6.4 kmh 30.38 in1028.8 mb 0.00 in0.0 mm 0.00 in0.0 mm 0.00 in0.0 mm
06:03 PM 45.3°F7.4°C 13.0°F-10.6°C 27% 1.0 mph NE1.6 kmh NE 4.0 mph6.4 kmh 30.39 in1029.1 mb 0.00 in0.0 mm 0.00 in0.0 mm 0.00 in0.0 mm
06:21 PM 43.3°F6.3°C 16.1°F-8.8°C 33% 3.0 mph NE4.8 kmh NE 4.0 mph6.4 kmh 30.42 in1030.1 mb 0.00 in0.0 mm 0.00 in0.0 mm 0.00 in0.0 mm
06:42 PM 41.9°F5.5°C 17.5°F-8.1°C 37% 2.0 mph NNE3.2 kmh NNE 4.0 mph6.4 kmh 30.45 in1031.2 mb 0.00 in0.0 mm 0.00 in0.0 mm 0.00 in0.0 mm
07:03 PM 41.2°F5.1°C 18.1°F-7.7°C 39% 2.0 mph N3.2 kmh N 4.0 mph6.4 kmh 30.45 in1031.2 mb 0.00 in0.0 mm 0.00 in0.0 mm 0.00 in0.0 mm
07:21 PM 40.0°F4.4°C 19.7°F-6.8°C 44% 2.0 mph NE3.2 kmh NE 4.0 mph6.4 kmh 30.47 in1031.8 mb 0.00 in0.0 mm 0.00 in0.0 mm 0.00 in0.0 mm
07:42 PM 40.2°F4.6°C 17.5°F-8.1°C 40% 3.0 mph 4.8 kmh 7.0 mph11.3 kmh 30.47 in1031.8 mb 0.00 in0.0 mm 0.00 in0.0 mm 0.00 in0.0 mm
08:03 PM 39.3°F4.1°C 17.4°F-8.1°C 41% 3.0 mph 4.8 kmh 4.0 mph6.4 kmh 30.48 in1032.2 mb 0.00 in0.0 mm 0.00 in0.0 mm 0.00 in0.0 mm
08:21 PM 38.8°F3.8°C 16.7°F-8.5°C 40% 3.0 mph 4.8 kmh 4.0 mph6.4 kmh 30.48 in1032.2 mb 0.00 in0.0 mm 0.00 in0.0 mm 0.00 in0.0 mm
08:42 PM 38.9°F3.8°C 15.2°F-9.3°C 38% 2.0 mph 3.2 kmh 4.0 mph6.4 kmh 30.48 in1032.2 mb 0.00 in0.0 mm 0.00 in0.0 mm 0.00 in0.0 mm
09:03 PM 37.9°F3.3°C 15.6°F-9.1°C 40% 2.0 mph 3.2 kmh 4.0 mph6.4 kmh 30.50 in1032.8 mb 0.00 in0.0 mm 0.00 in0.0 mm 0.00 in0.0 mm
09:21 PM 37.6°F3.1°C 15.5°F-9.2°C 40% 2.0 mph 3.2 kmh 4.0 mph6.4 kmh 30.50 in1032.8 mb 0.00 in0.0 mm 0.00 in0.0 mm 0.00 in0.0 mm
09:42 PM 37.2°F2.9°C 13.2°F-10.4°C 37% 2.0 mph 3.2 kmh 4.0 mph6.4 kmh 30.50 in1032.8 mb 0.00 in0.0 mm 0.00 in0.0 mm 0.00 in0.0 mm
10:21 PM 36.9°F2.7°C 10.8°F-11.8°C 33% 3.0 mph NNE4.8 kmh NNE 4.0 mph6.4 kmh 30.51 in1033.2 mb 0.00 in0.0 mm 0.00 in0.0 mm 0.00 in0.0 mm
10:42 PM 36.8°F2.7°C 11.2°F-11.6°C 34% 2.0 mph N3.2 kmh N 4.0 mph6.4 kmh 30.51 in1033.2 mb 0.00 in0.0 mm 0.00 in0.0 mm 0.00 in0.0 mm
11:21 PM 37.2°F2.9°C 9.6°F-12.4°C 31% 4.0 mph 6.4 kmh 7.0 mph11.3 kmh 30.49 in1032.5 mb 0.00 in0.0 mm 0.00 in0.0 mm 0.00 in0.0 mm
11:42 PM 36.4°F2.4°C 8.1°F-13.3°C 30% 3.0 mph 4.8 kmh 5.0 mph8.0 kmh 30.50 in1032.8 mb 0.00 in0.0 mm 0.00 in0.0 mm 0.00 in0.0 mm